createdAt,value
2023-02-01T00:00:17.505Z,66.40
2023-02-01T00:02:45.401Z,66.65
2023-02-01T00:05:13.580Z,66.31
2023-02-01T00:07:41.241Z,66.32
2023-02-01T00:10:10.183Z,65.79
2023-02-01T00:12:38.918Z,65.98
2023-02-01T00:15:07.622Z,65.25
2023-02-01T00:17:36.689Z,65.94
2023-02-01T00:20:05.143Z,66.21
2023-02-01T00:22:32.839Z,65.73
2023-02-01T00:25:00.541Z,65.52
2023-02-01T00:27:28.248Z,65.63
2023-02-01T00:29:56.458Z,64.93
2023-02-01T00:32:24.186Z,64.72
2023-02-01T00:34:53.264Z,64.58
2023-02-01T00:37:20.955Z,64.78
2023-02-01T00:39:48.701Z,65.37
2023-02-01T00:42:16.406Z,64.99
2023-02-01T00:44:44.098Z,65.27
2023-02-01T00:47:11.773Z,64.82
2023-02-01T00:49:39.550Z,64.20
2023-02-01T00:52:08.587Z,64.75
2023-02-01T00:54:37.774Z,64.41
2023-02-01T00:57:05.500Z,64.10
2023-02-01T00:59:33.210Z,64.51
2023-02-01T01:02:01.003Z,64.92
2023-02-01T01:04:28.699Z,64.36
2023-02-01T01:06:56.383Z,64.28
2023-02-01T01:09:25.438Z,63.99
2023-02-01T01:11:53.689Z,65.09
2023-02-01T01:14:21.404Z,64.01
2023-02-01T01:16:51.512Z,64.97
2023-02-01T01:19:19.239Z,64.43
2023-02-01T01:21:46.917Z,64.14
2023-02-01T01:24:14.707Z,64.40
2023-02-01T01:26:43.838Z,63.67
2023-02-01T01:29:11.929Z,64.37
2023-02-01T01:31:39.682Z,64.80
2023-02-01T01:34:07.436Z,64.43
2023-02-01T01:36:35.187Z,64.70
2023-02-01T01:39:02.914Z,64.14
2023-02-01T01:41:33.560Z,63.89
2023-02-01T01:44:04.068Z,64.01
2023-02-01T01:46:33.830Z,64.20
2023-02-01T01:49:07.750Z,64.45
2023-02-01T01:51:42.562Z,64.73
2023-02-01T01:54:18.179Z,64.27
2023-02-01T01:56:51.241Z,64.25
2023-02-01T01:59:21.686Z,64.05
2023-02-01T02:01:49.815Z,63.92
2023-02-01T02:04:18.205Z,64.83
2023-02-01T02:06:52.245Z,63.91
2023-02-01T02:09:20.025Z,64.60
2023-02-01T02:11:47.764Z,64.47
2023-02-01T02:14:18.658Z,65.00
2023-02-01T02:17:10.035Z,64.80
2023-02-01T02:20:07.095Z,64.89
2023-02-01T02:23:07.574Z,64.55
2023-02-01T02:26:03.153Z,64.07
2023-02-01T02:29:02.580Z,64.18
2023-02-01T02:31:49.027Z,64.63
2023-02-01T02:34:24.089Z,65.18
2023-02-01T02:37:03.998Z,64.89
2023-02-01T02:39:40.497Z,64.40
2023-02-01T02:42:32.704Z,64.85
2023-02-01T02:45:25.232Z,64.64
2023-02-01T02:47:58.448Z,64.75
2023-02-01T02:50:48.942Z,64.28
2023-02-01T02:53:37.266Z,64.71
2023-02-01T02:56:25.292Z,64.67
2023-02-01T02:59:12.151Z,64.53
2023-02-01T03:01:59.363Z,65.16
2023-02-01T03:04:27.224Z,64.28
2023-02-01T03:06:56.621Z,64.33
2023-02-01T03:09:31.756Z,64.77
2023-02-01T03:12:21.855Z,65.07
2023-02-01T03:14:54.675Z,64.81
2023-02-01T03:17:29.627Z,65.00
2023-02-01T03:20:01.814Z,64.72
2023-02-01T03:22:32.830Z,64.57
2023-02-01T03:25:08.413Z,65.48
2023-02-01T03:27:41.410Z,65.32
2023-02-01T03:30:18.892Z,64.84
2023-02-01T03:33:02.173Z,64.94
2023-02-01T03:35:34.643Z,64.60
2023-02-01T03:38:14.661Z,64.92
2023-02-01T03:40:47.156Z,64.63
2023-02-01T03:43:19.789Z,64.63
2023-02-01T03:45:53.907Z,64.65
2023-02-01T03:48:25.474Z,65.15
2023-02-01T03:50:58.310Z,64.94
2023-02-01T03:53:28.663Z,64.82
2023-02-01T03:55:57.491Z,64.94
2023-02-01T03:58:25.694Z,64.65
2023-02-01T04:00:56.016Z,64.83
2023-02-01T04:03:24.283Z,64.92
2023-02-01T04:05:52.092Z,65.29
2023-02-01T04:08:20.216Z,65.23
2023-02-01T04:10:49.559Z,64.65
2023-02-01T04:13:17.264Z,64.57
2023-02-01T04:15:44.975Z,64.66
2023-02-01T04:18:12.687Z,64.87
2023-02-01T04:20:40.377Z,64.85
2023-02-01T04:23:08.111Z,64.68
2023-02-01T04:25:35.783Z,65.37
2023-02-01T04:28:05.778Z,64.86
2023-02-01T04:30:33.559Z,65.08
2023-02-01T04:33:01.420Z,64.58
2023-02-01T04:35:29.121Z,64.79
2023-02-01T04:37:56.822Z,65.14
2023-02-01T04:40:24.944Z,65.18
2023-02-01T04:42:52.925Z,64.96
2023-02-01T04:45:21.962Z,65.00
2023-02-01T04:47:50.036Z,65.16
2023-02-01T04:50:18.330Z,65.56
2023-02-01T04:52:47.188Z,65.25
2023-02-01T04:55:15.333Z,65.20
2023-02-01T04:57:43.344Z,64.68
2023-02-01T05:00:12.713Z,65.24
2023-02-01T05:02:41.915Z,64.88
2023-02-01T05:05:10.464Z,65.07
2023-02-01T05:07:38.145Z,64.74
2023-02-01T05:10:06.252Z,65.16
2023-02-01T05:12:51.317Z,64.97
2023-02-01T05:15:19.022Z,65.02
2023-02-01T05:17:48.090Z,64.99
2023-02-01T05:20:16.015Z,64.66
2023-02-01T05:22:43.781Z,64.94
2023-02-01T05:25:11.475Z,65.42
2023-02-01T05:27:39.235Z,64.97
2023-02-01T05:30:08.527Z,64.96
2023-02-01T05:32:36.365Z,64.97
2023-02-01T05:35:05.928Z,65.00
2023-02-01T05:37:33.665Z,64.64
2023-02-01T05:40:01.365Z,65.22
2023-02-01T05:42:29.112Z,65.09
2023-02-01T05:44:56.808Z,65.37
2023-02-01T05:47:24.495Z,65.25
2023-02-01T05:49:52.148Z,64.66
2023-02-01T05:52:21.213Z,65.56
2023-02-01T05:54:49.860Z,65.47
2023-02-01T05:57:17.823Z,64.95
2023-02-01T05:59:46.613Z,64.87
2023-02-01T06:02:14.559Z,64.87
2023-02-01T06:04:42.255Z,65.42
2023-02-01T06:07:11.344Z,64.80
2023-02-01T06:09:40.577Z,65.04
2023-02-01T06:12:08.600Z,65.92
2023-02-01T06:14:36.296Z,65.86
2023-02-01T06:17:04.002Z,65.47
2023-02-01T06:19:31.711Z,65.75
2023-02-01T06:21:59.388Z,65.66
2023-02-01T06:24:27.132Z,65.93
2023-02-01T06:26:56.223Z,65.57
2023-02-01T06:29:23.954Z,65.38
2023-02-01T06:31:51.853Z,65.07
2023-02-01T06:34:22.205Z,65.90
2023-02-01T06:36:50.052Z,65.71
2023-02-01T06:39:17.836Z,65.51
2023-02-01T06:41:48.223Z,65.78
2023-02-01T06:44:17.998Z,65.62
2023-02-01T06:46:45.776Z,65.95
2023-02-01T06:49:13.587Z,65.70
2023-02-01T06:51:41.322Z,65.47
2023-02-01T06:54:09.077Z,65.30
2023-02-01T06:56:36.786Z,65.80
2023-02-01T06:59:05.874Z,65.91
2023-02-01T07:01:35.373Z,65.54
2023-02-01T07:04:03.117Z,66.17
2023-02-01T07:06:31.089Z,65.68
2023-02-01T07:08:59.569Z,65.74
2023-02-01T07:11:28.985Z,65.66
2023-02-01T07:13:56.682Z,66.00
2023-02-01T07:16:24.780Z,66.24
2023-02-01T07:18:54.491Z,66.61
2023-02-01T07:21:22.403Z,66.61
2023-02-01T07:23:50.103Z,66.35
2023-02-01T07:26:18.351Z,66.12
2023-02-01T07:28:47.676Z,66.47
2023-02-01T07:31:19.275Z,66.49
2023-02-01T07:33:47.577Z,66.28
2023-02-01T07:36:18.332Z,66.24
2023-02-01T07:38:47.887Z,66.87
2023-02-01T07:41:15.923Z,67.07
2023-02-01T07:43:43.709Z,66.87
2023-02-01T07:46:12.265Z,66.89
2023-02-01T07:48:40.265Z,66.33
2023-02-01T07:51:10.598Z,66.61
2023-02-01T07:53:39.861Z,66.58
2023-02-01T07:56:13.896Z,66.26
2023-02-01T07:58:41.656Z,66.79
2023-02-01T08:01:22.116Z,66.60
2023-02-01T08:03:50.540Z,66.41
2023-02-01T08:06:18.335Z,66.32
2023-02-01T08:08:47.812Z,66.00
2023-02-01T08:11:16.243Z,66.88
2023-02-01T08:13:44.327Z,66.29
2023-02-01T08:16:13.972Z,66.55
2023-02-01T08:18:42.635Z,66.66
2023-02-01T08:21:12.947Z,66.54
2023-02-01T08:23:42.059Z,66.52
2023-02-01T08:26:14.523Z,66.38
2023-02-01T08:28:44.399Z,66.61
2023-02-01T08:31:15.759Z,66.74
2023-02-01T08:33:44.948Z,66.65
2023-02-01T08:36:13.170Z,66.53
2023-02-01T08:38:41.722Z,66.32
2023-02-01T08:41:12.223Z,66.53
2023-02-01T08:43:39.940Z,66.10
2023-02-01T08:46:08.054Z,66.27
2023-02-01T08:48:36.910Z,66.16
2023-02-01T08:51:06.076Z,66.56
2023-02-01T08:53:33.967Z,66.18
2023-02-01T08:56:02.617Z,66.19
2023-02-01T08:58:31.804Z,65.99
2023-02-01T09:00:59.557Z,66.62
2023-02-01T09:03:27.567Z,66.33
2023-02-01T09:06:02.600Z,65.68
2023-02-01T09:08:30.678Z,65.48
2023-02-01T09:11:03.204Z,65.35
2023-02-01T09:13:32.867Z,64.77
2023-02-01T09:16:00.974Z,64.42
2023-02-01T09:18:28.807Z,63.99
2023-02-01T09:20:56.526Z,64.35
2023-02-01T09:23:24.436Z,64.67
2023-02-01T09:25:52.534Z,64.87
2023-02-01T09:28:21.017Z,64.66
2023-02-01T09:30:50.117Z,63.18
2023-02-01T09:33:18.670Z,62.55
2023-02-01T09:35:46.428Z,62.39
2023-02-01T09:38:14.188Z,61.95
2023-02-01T09:40:48.082Z,61.77
2023-02-01T09:43:32.675Z,60.65
2023-02-01T09:46:18.517Z,61.49
2023-02-01T09:48:47.705Z,61.94
2023-02-01T09:51:18.819Z,61.81
2023-02-01T09:53:51.636Z,61.32
2023-02-01T09:56:25.679Z,60.81
2023-02-01T09:59:01.171Z,60.00
2023-02-01T10:01:31.327Z,60.33
2023-02-01T10:04:04.949Z,59.49
2023-02-01T10:06:40.320Z,59.42
2023-02-01T10:09:31.920Z,59.06
2023-02-01T10:12:17.904Z,59.33
2023-02-01T10:14:56.956Z,58.89
2023-02-01T10:17:40.774Z,59.17
2023-02-01T10:20:17.590Z,58.75
2023-02-01T10:23:11.411Z,58.63
2023-02-01T10:25:43.954Z,57.91
2023-02-01T10:28:17.648Z,58.33
2023-02-01T10:30:48.195Z,58.28
2023-02-01T10:33:24.076Z,58.66
2023-02-01T10:35:57.557Z,59.20
2023-02-01T10:38:29.035Z,59.93
2023-02-01T10:41:02.317Z,60.43
2023-02-01T10:43:30.536Z,60.83
2023-02-01T10:45:59.077Z,61.30
2023-02-01T10:48:30.257Z,60.43
2023-02-01T10:51:01.980Z,60.29
2023-02-01T10:53:38.251Z,59.43
2023-02-01T10:56:09.654Z,59.02
2023-02-01T10:58:44.796Z,59.10
2023-02-01T11:01:19.437Z,58.11
2023-02-01T11:03:55.690Z,58.17
2023-02-01T11:06:31.216Z,58.16
2023-02-01T11:09:01.645Z,58.86
2023-02-01T11:11:30.172Z,58.86
2023-02-01T11:14:00.483Z,59.93
2023-02-01T11:16:35.450Z,59.70
2023-02-01T11:19:05.382Z,60.10
2023-02-01T11:21:33.729Z,60.58
2023-02-01T11:24:04.813Z,60.75
2023-02-01T11:26:33.976Z,61.06
2023-02-01T11:29:05.228Z,61.43
2023-02-01T11:31:35.948Z,61.68
2023-02-01T11:34:10.539Z,61.75
2023-02-01T11:36:38.953Z,61.66
2023-02-01T11:39:19.527Z,61.02
2023-02-01T11:42:00.523Z,61.44
2023-02-01T11:44:33.914Z,60.49
2023-02-01T11:47:32.375Z,59.78
2023-02-01T11:50:03.662Z,58.86
2023-02-01T11:52:43.945Z,58.22
2023-02-01T11:55:31.416Z,58.20
2023-02-01T11:58:05.136Z,57.71
2023-02-01T12:00:46.331Z,58.00
2023-02-01T12:03:51.516Z,57.48
2023-02-01T12:06:30.788Z,57.76
2023-02-01T12:09:27.810Z,58.96
2023-02-01T12:12:05.487Z,59.11
2023-02-01T12:14:58.373Z,59.82
2023-02-01T12:17:54.922Z,58.96
2023-02-01T12:20:53.605Z,60.37
2023-02-01T12:23:38.907Z,60.11
2023-02-01T12:26:24.591Z,59.92
2023-02-01T12:29:13.856Z,59.90
2023-02-01T12:31:53.756Z,60.98
2023-02-01T12:34:34.499Z,61.07
2023-02-01T12:37:10.532Z,60.81
2023-02-01T12:39:43.036Z,60.71
2023-02-01T12:42:18.302Z,61.06
2023-02-01T12:44:51.231Z,59.90
2023-02-01T12:47:25.005Z,59.55
2023-02-01T12:50:01.844Z,59.40
2023-02-01T12:52:37.377Z,58.82
2023-02-01T12:55:18.490Z,58.85
2023-02-01T12:57:50.510Z,58.22
2023-02-01T13:00:27.314Z,57.30
2023-02-01T13:02:58.099Z,57.39
2023-02-01T13:05:33.256Z,56.74
2023-02-01T13:08:04.726Z,57.06
2023-02-01T13:10:38.470Z,57.78
2023-02-01T13:13:13.344Z,58.15
2023-02-01T13:15:44.752Z,59.12
2023-02-01T13:18:18.776Z,58.83
2023-02-01T13:20:55.259Z,59.65
2023-02-01T13:23:29.693Z,60.06
2023-02-01T13:25:58.811Z,60.34
2023-02-01T13:28:29.841Z,59.50
2023-02-01T13:31:26.657Z,60.48
2023-02-01T13:34:07.247Z,60.25
2023-02-01T13:36:57.000Z,61.11
2023-02-01T13:39:50.259Z,60.81
2023-02-01T13:42:23.282Z,61.10
2023-02-01T13:44:53.934Z,60.69
2023-02-01T13:47:27.727Z,61.48
2023-02-01T13:49:58.569Z,60.79
2023-02-01T13:52:30.961Z,61.42
2023-02-01T13:55:17.839Z,61.23
2023-02-01T13:57:47.941Z,61.49
2023-02-01T14:00:31.452Z,61.22
2023-02-01T14:03:16.761Z,61.20
2023-02-01T14:06:15.899Z,61.57
2023-02-01T14:09:07.604Z,62.56
2023-02-01T14:11:41.663Z,62.09
2023-02-01T14:14:45.766Z,62.25
2023-02-01T14:17:35.414Z,61.88
2023-02-01T14:20:49.747Z,61.99
2023-02-01T14:23:26.416Z,62.30
2023-02-01T14:26:12.789Z,61.52
2023-02-01T14:28:57.917Z,61.47
2023-02-01T14:31:42.361Z,60.83
2023-02-01T14:34:22.612Z,60.27
2023-02-01T14:36:56.002Z,59.59
2023-02-01T14:39:28.727Z,59.75
2023-02-01T14:42:02.368Z,59.21
2023-02-01T14:44:37.054Z,58.65
2023-02-01T14:47:07.679Z,58.53
2023-02-01T14:49:40.169Z,59.01
2023-02-01T14:52:14.902Z,58.99
2023-02-01T14:54:43.354Z,59.28
2023-02-01T14:57:19.002Z,59.64
2023-02-01T14:59:47.608Z,59.96
2023-02-01T15:02:25.190Z,60.99
2023-02-01T15:04:58.007Z,60.70
2023-02-01T15:07:28.040Z,61.40
2023-02-01T15:09:58.863Z,60.93
2023-02-01T15:12:31.536Z,60.98
2023-02-01T15:15:14.013Z,60.98
2023-02-01T15:17:42.633Z,61.83
2023-02-01T15:20:22.153Z,61.92
2023-02-01T15:22:56.414Z,62.36
2023-02-01T15:25:26.512Z,61.45
2023-02-01T15:27:54.760Z,61.72
2023-02-01T15:30:24.948Z,62.13
2023-02-01T15:32:53.381Z,61.83
2023-02-01T15:35:43.453Z,62.10
2023-02-01T15:38:22.097Z,62.36
2023-02-01T15:40:57.737Z,62.33
2023-02-01T15:43:26.505Z,62.19
2023-02-01T15:45:57.637Z,62.74
2023-02-01T15:48:27.016Z,63.09
2023-02-01T15:50:57.772Z,62.86
2023-02-01T15:53:31.903Z,62.46
2023-02-01T15:56:02.646Z,62.48
2023-02-01T15:58:32.750Z,62.26
2023-02-01T16:01:05.432Z,61.53
2023-02-01T16:03:39.202Z,61.32
2023-02-01T16:06:12.079Z,61.25
2023-02-01T16:08:51.425Z,61.19
2023-02-01T16:11:26.529Z,61.71
2023-02-01T16:13:54.268Z,62.48
2023-02-01T16:16:22.095Z,62.57
2023-02-01T16:18:49.831Z,61.97
2023-02-01T16:21:19.001Z,62.68
2023-02-01T16:23:50.932Z,62.90
2023-02-01T16:26:18.967Z,62.22
2023-02-01T16:28:46.933Z,62.55
2023-02-01T16:31:20.201Z,62.29
2023-02-01T16:33:50.578Z,63.20
2023-02-01T16:36:20.376Z,63.43
2023-02-01T16:38:50.252Z,63.30
2023-02-01T16:41:20.570Z,63.13
2023-02-01T16:43:51.916Z,63.54
2023-02-01T16:46:22.217Z,63.45
2023-02-01T16:48:53.822Z,63.91
2023-02-01T16:51:23.989Z,63.35
2023-02-01T16:53:54.853Z,63.11
2023-02-01T16:56:24.393Z,63.16
2023-02-01T16:58:52.307Z,63.01
2023-02-01T17:01:21.052Z,63.16
2023-02-01T17:03:50.975Z,63.39
2023-02-01T17:06:21.228Z,63.12
2023-02-01T17:08:54.511Z,62.94
2023-02-01T17:11:22.548Z,63.88
2023-02-01T17:13:50.266Z,63.21
2023-02-01T17:16:28.551Z,62.66
2023-02-01T17:18:59.402Z,63.20
2023-02-01T17:21:30.120Z,63.19
2023-02-01T17:24:01.198Z,62.97
2023-02-01T17:26:29.122Z,62.29
2023-02-01T17:28:57.913Z,62.18
2023-02-01T17:31:25.712Z,61.71
2023-02-01T17:33:53.503Z,60.99
2023-02-01T17:36:21.237Z,60.55
2023-02-01T17:39:03.661Z,60.21
2023-02-01T17:41:34.610Z,59.66
2023-02-01T17:44:03.185Z,59.69
2023-02-01T17:46:32.498Z,59.92
2023-02-01T17:49:01.405Z,59.99
2023-02-01T17:51:31.839Z,60.55
2023-02-01T17:53:59.640Z,60.98
2023-02-01T17:56:27.348Z,61.80
2023-02-01T17:59:00.108Z,62.04
2023-02-01T18:01:27.867Z,61.85
2023-02-01T18:03:55.689Z,61.74
2023-02-01T18:06:26.493Z,61.93
2023-02-01T18:08:54.804Z,61.69
2023-02-01T18:11:24.976Z,61.96
2023-02-01T18:13:55.969Z,62.36
2023-02-01T18:16:25.655Z,61.84
2023-02-01T18:18:54.042Z,61.74
2023-02-01T18:21:23.967Z,61.93
2023-02-01T18:23:51.683Z,61.36
2023-02-01T18:26:20.474Z,61.80
2023-02-01T18:28:48.345Z,61.91
2023-02-01T18:31:25.740Z,61.49
2023-02-01T18:33:55.388Z,60.72
2023-02-01T18:36:23.258Z,60.03
2023-02-01T18:38:51.060Z,59.65
2023-02-01T18:41:21.615Z,59.76
2023-02-01T18:43:50.106Z,59.46
2023-02-01T18:46:18.228Z,60.09
2023-02-01T18:48:47.342Z,60.12
2023-02-01T18:51:19.871Z,60.65
2023-02-01T18:53:48.257Z,61.38
2023-02-01T18:56:18.373Z,60.96
2023-02-01T18:58:46.496Z,61.57
2023-02-01T19:01:17.328Z,61.58
2023-02-01T19:03:54.152Z,62.13
2023-02-01T19:06:25.676Z,62.53
2023-02-01T19:08:56.091Z,62.61
2023-02-01T19:11:23.921Z,62.91
2023-02-01T19:13:51.997Z,62.33
2023-02-01T19:16:19.792Z,62.78
2023-02-01T19:18:52.079Z,63.06
2023-02-01T19:21:19.888Z,62.92
2023-02-01T19:23:47.684Z,63.10
2023-02-01T19:26:17.439Z,63.57
2023-02-01T19:28:47.868Z,62.63
2023-02-01T19:31:16.750Z,63.21
2023-02-01T19:33:44.563Z,63.54
2023-02-01T19:36:13.611Z,63.95
2023-02-01T19:38:41.563Z,63.16
2023-02-01T19:41:09.374Z,63.81
2023-02-01T19:43:39.588Z,63.47
2023-02-01T19:46:07.367Z,64.06
2023-02-01T19:48:35.273Z,63.50
2023-02-01T19:51:04.222Z,64.00
2023-02-01T19:53:33.407Z,63.75
2023-02-01T19:56:01.704Z,64.22
2023-02-01T19:58:30.719Z,63.73
2023-02-01T20:00:59.772Z,64.02
2023-02-01T20:03:28.557Z,64.16
2023-02-01T20:05:57.791Z,64.65
2023-02-01T20:08:26.008Z,64.71
2023-02-01T20:10:56.080Z,64.25
2023-02-01T20:13:23.854Z,64.17
2023-02-01T20:15:57.170Z,64.69
2023-02-01T20:18:25.135Z,64.88
2023-02-01T20:20:56.423Z,65.00
2023-02-01T20:23:24.488Z,64.94
2023-02-01T20:25:53.243Z,64.49
2023-02-01T20:28:22.337Z,64.33
2023-02-01T20:30:50.044Z,65.15
2023-02-01T20:33:18.718Z,64.45
2023-02-01T20:35:46.706Z,65.10
2023-02-01T20:38:15.235Z,64.71
2023-02-01T20:40:42.903Z,65.17
2023-02-01T20:43:10.654Z,64.72
2023-02-01T20:45:41.937Z,65.00
2023-02-01T20:48:10.580Z,64.92
2023-02-01T20:50:39.076Z,64.84
2023-02-01T20:53:06.919Z,65.35
2023-02-01T20:55:34.593Z,65.44
2023-02-01T20:58:02.324Z,65.30
2023-02-01T21:00:31.172Z,65.15
2023-02-01T21:03:00.282Z,65.54
2023-02-01T21:05:39.855Z,65.36
2023-02-01T21:08:08.996Z,64.87
2023-02-01T21:10:37.831Z,65.14
2023-02-01T21:13:05.843Z,64.96
2023-02-01T21:15:36.148Z,65.40
2023-02-01T21:18:06.814Z,65.53
2023-02-01T21:20:34.552Z,65.68
2023-02-01T21:23:02.346Z,65.51
2023-02-01T21:25:30.066Z,65.92
2023-02-01T21:27:57.813Z,65.16
2023-02-01T21:30:25.647Z,65.12
2023-02-01T21:32:53.360Z,65.45
2023-02-01T21:35:22.698Z,65.88
2023-02-01T21:37:50.798Z,65.65
2023-02-01T21:40:18.729Z,65.82
2023-02-01T21:42:46.736Z,66.38
2023-02-01T21:45:15.251Z,65.79
2023-02-01T21:47:43.690Z,65.47
2023-02-01T21:50:16.716Z,66.26
2023-02-01T21:52:46.132Z,66.01
2023-02-01T21:55:14.601Z,65.76
2023-02-01T21:57:42.420Z,65.92
2023-02-01T22:00:13.444Z,66.29
2023-02-01T22:02:41.812Z,66.02
2023-02-01T22:05:11.133Z,66.63
2023-02-01T22:07:38.890Z,66.95
2023-02-01T22:10:08.847Z,66.91
2023-02-01T22:12:36.576Z,66.88
2023-02-01T22:15:04.522Z,66.69
2023-02-01T22:17:32.540Z,66.59
2023-02-01T22:20:00.266Z,67.68
2023-02-01T22:22:27.931Z,66.87
2023-02-01T22:24:55.622Z,67.21
2023-02-01T22:27:33.192Z,67.91
2023-02-01T22:30:13.592Z,67.42
2023-02-01T22:32:41.302Z,67.87
2023-02-01T22:35:09.757Z,67.56
2023-02-01T22:37:37.523Z,67.01
2023-02-01T22:40:05.758Z,67.40
2023-02-01T22:42:34.893Z,67.13
2023-02-01T22:45:04.509Z,67.89
2023-02-01T22:47:32.275Z,67.01
2023-02-01T22:49:59.968Z,68.16
2023-02-01T22:52:27.665Z,67.44
2023-02-01T22:54:55.923Z,67.57
2023-02-01T22:57:23.611Z,67.80
2023-02-01T22:59:52.692Z,67.58
2023-02-01T23:02:20.425Z,67.06
2023-02-01T23:04:48.206Z,67.12
2023-02-01T23:07:15.938Z,68.25
2023-02-01T23:09:43.649Z,68.13
2023-02-01T23:12:11.365Z,68.07
2023-02-01T23:14:59.184Z,68.72
2023-02-01T23:17:28.330Z,68.53
2023-02-01T23:19:56.053Z,68.02
2023-02-01T23:22:23.741Z,68.15
2023-02-01T23:24:51.488Z,68.85
2023-02-01T23:27:19.191Z,67.90
2023-02-01T23:29:46.888Z,67.99
2023-02-01T23:32:16.162Z,68.10
2023-02-01T23:34:45.227Z,68.49
2023-02-01T23:37:12.958Z,68.38
2023-02-01T23:39:40.661Z,68.59
2023-02-01T23:42:08.371Z,68.19
2023-02-01T23:44:36.062Z,68.48
2023-02-01T23:47:03.828Z,69.31
2023-02-01T23:49:31.672Z,69.62
2023-02-01T23:52:00.714Z,69.46
2023-02-01T23:54:28.487Z,69.11
2023-02-01T23:56:57.290Z,68.98
2023-02-01T23:59:26.824Z,69.55
